createdAt,value
2018-11-11T00:00:31.486Z,1005.14
2018-11-11T00:01:41.372Z,1005.13
2018-11-11T00:02:51.260Z,1005.07
2018-11-11T00:04:00.652Z,1005.09
2018-11-11T00:05:10.822Z,1005.12
2018-11-11T00:06:20.703Z,1005.11
2018-11-11T00:07:30.596Z,1005.1
2018-11-11T00:08:40.483Z,1005.08
2018-11-11T00:09:50.703Z,1005.09
2018-11-11T00:11:00.319Z,1004.99
2018-11-11T00:12:10.209Z,1005.06
2018-11-11T00:13:19.820Z,1005.05
2018-11-11T00:14:29.715Z,1005.05
2018-11-11T00:15:39.598Z,1005.07
2018-11-11T00:16:49.210Z,1005.03
2018-11-11T00:17:59.099Z,1005.08
2018-11-11T00:19:08.168Z,1005.07
2018-11-11T00:20:17.800Z,1005.1
2018-11-11T00:21:27.161Z,1005.18
2018-11-11T00:22:37.165Z,1005.15
2018-11-11T00:23:47.070Z,1005.17
2018-11-11T00:24:57.233Z,1005.19
2018-11-11T00:26:07.124Z,1005.2
2018-11-11T00:27:17.029Z,1005.2
2018-11-11T00:28:27.215Z,1005.17
2018-11-11T00:29:37.317Z,1005.16
2018-11-11T00:30:47.476Z,1005.11
2018-11-11T00:31:57.373Z,1005.13
2018-11-11T00:33:06.767Z,1005.1
2018-11-11T00:34:16.656Z,1005.07
2018-11-11T00:35:26.552Z,1005.09
2018-11-11T00:36:36.168Z,1005.13
2018-11-11T00:37:45.785Z,1005.14
2018-11-11T00:38:55.730Z,1005.12
2018-11-11T00:40:05.615Z,1005.17
2018-11-11T00:41:15.230Z,1005.15
2018-11-11T00:42:24.850Z,1005.1
2018-11-11T00:43:34.462Z,1005.16
2018-11-11T00:44:44.074Z,1005.18
2018-11-11T00:45:53.957Z,1005.17
2018-11-11T00:47:04.124Z,1005.17
2018-11-11T00:48:13.739Z,1005.14
2018-11-11T00:49:23.352Z,1005.07
2018-11-11T00:50:32.699Z,1005.03
2018-11-11T00:51:42.321Z,1005.01
2018-11-11T00:52:51.939Z,1005.01
2018-11-11T00:54:01.831Z,1004.97
2018-11-11T00:55:11.716Z,1005
2018-11-11T00:56:21.333Z,1004.94
2018-11-11T00:57:30.950Z,1004.98
2018-11-11T00:58:40.575Z,1004.95
2018-11-11T00:59:50.496Z,1004.96
2018-11-11T01:01:00.677Z,1005.03
2018-11-11T01:02:10.659Z,1005
2018-11-11T01:03:19.995Z,1004.96
2018-11-11T01:04:29.874Z,1004.96
2018-11-11T01:05:39.775Z,1004.95
2018-11-11T01:06:49.423Z,1004.93
2018-11-11T01:07:59.304Z,1004.99
2018-11-11T01:09:09.470Z,1005.02
2018-11-11T01:10:18.811Z,1005.07
2018-11-11T01:11:28.708Z,1005.03
2018-11-11T01:12:38.594Z,1005.01
2018-11-11T01:13:48.218Z,1005.07
2018-11-11T01:14:58.099Z,1005.11
2018-11-11T01:16:08.002Z,1005.08
2018-11-11T01:17:17.906Z,1005.09
2018-11-11T01:18:27.249Z,1005.09
2018-11-11T01:19:37.186Z,1005.13
2018-11-11T01:20:47.353Z,1005.16
2018-11-11T01:21:56.963Z,1005.17
2018-11-11T01:23:06.851Z,1005.14
2018-11-11T01:24:16.462Z,1005.16
2018-11-11T01:25:26.362Z,1005.17
2018-11-11T01:26:35.698Z,1005.13
2018-11-11T01:27:45.589Z,1005.11
2018-11-11T01:28:55.487Z,1005.12
2018-11-11T01:30:05.380Z,1005.1
2018-11-11T01:31:15.341Z,1005.12
2018-11-11T01:32:25.233Z,1005.09
2018-11-11T01:33:35.127Z,1005.06
2018-11-11T01:34:45.006Z,1005.1
2018-11-11T01:35:55.168Z,1005.07
2018-11-11T01:37:04.835Z,1005.07
2018-11-11T01:38:14.717Z,1005.07
2018-11-11T01:39:24.614Z,1005
2018-11-11T01:40:34.782Z,1005.01
2018-11-11T01:41:44.672Z,1004.99
2018-11-11T01:42:54.885Z,1004.95
2018-11-11T01:44:05.045Z,1005
2018-11-11T01:45:14.930Z,1004.99
2018-11-11T01:46:24.817Z,1004.93
2018-11-11T01:47:34.982Z,1004.92
2018-11-11T01:48:44.598Z,1004.93
2018-11-11T01:49:54.216Z,1004.9
2018-11-11T01:51:04.104Z,1004.89
2018-11-11T01:52:14.273Z,1004.84
2018-11-11T01:53:24.437Z,1004.8
2018-11-11T01:54:34.327Z,1004.79
2018-11-11T01:55:43.667Z,1004.74
2018-11-11T01:56:53.288Z,1004.77
2018-11-11T01:58:03.457Z,1004.74
2018-11-11T01:59:12.807Z,1004.74
2018-11-11T02:00:22.695Z,1004.78
2018-11-11T02:01:32.319Z,1004.79
2018-11-11T02:02:41.665Z,1004.79
2018-11-11T02:03:51.555Z,1004.74
2018-11-11T02:05:01.445Z,1004.78
2018-11-11T02:06:11.070Z,1004.72
2018-11-11T02:07:20.412Z,1004.73
2018-11-11T02:08:30.578Z,1004.76
2018-11-11T02:09:40.222Z,1004.73
2018-11-11T02:10:50.064Z,1004.78
2018-11-11T02:12:00.235Z,1004.82
2018-11-11T02:13:09.849Z,1004.81
2018-11-11T02:14:19.517Z,1004.85
2018-11-11T02:15:29.144Z,1004.87
2018-11-11T02:16:39.309Z,1004.85
2018-11-11T02:17:49.466Z,1004.85
2018-11-11T02:18:59.366Z,1004.9
2018-11-11T02:20:08.986Z,1004.87
2018-11-11T02:21:19.155Z,1004.88
2018-11-11T02:22:29.468Z,1004.89
2018-11-11T02:23:39.359Z,1004.96
2018-11-11T02:24:49.248Z,1004.93
2018-11-11T02:25:58.871Z,1004.9
2018-11-11T02:27:08.497Z,1004.89
2018-11-11T02:28:18.394Z,1004.99
2018-11-11T02:29:28.007Z,1004.97
2018-11-11T02:30:38.179Z,1004.99
2018-11-11T02:31:48.358Z,1004.98
2018-11-11T02:32:57.703Z,1004.99
2018-11-11T02:34:07.886Z,1004.99
2018-11-11T02:35:17.830Z,1004.98
2018-11-11T02:36:27.991Z,1004.99
2018-11-11T02:37:38.260Z,1005.01
2018-11-11T02:38:48.774Z,1005.01
2018-11-11T02:39:58.667Z,1005.02
2018-11-11T02:41:08.847Z,1004.98
2018-11-11T02:42:18.748Z,1004.99
2018-11-11T02:43:28.645Z,1005.07
2018-11-11T02:44:38.539Z,1005.05
2018-11-11T02:45:48.443Z,1005.06
2018-11-11T02:46:58.059Z,1005
2018-11-11T02:48:07.971Z,1005.03
2018-11-11T02:49:17.324Z,1005.02
2018-11-11T02:50:27.508Z,1005.05
2018-11-11T02:51:37.408Z,1005.06
2018-11-11T02:52:47.618Z,1005
2018-11-11T02:53:57.780Z,1005.02
2018-11-11T02:55:07.686Z,1005.05
2018-11-11T02:56:17.579Z,1005.01
2018-11-11T02:57:27.191Z,1005.06
2018-11-11T02:58:37.085Z,1005.04
2018-11-11T02:59:47.254Z,1005.06
2018-11-11T03:00:56.589Z,1005.06
2018-11-11T03:02:06.754Z,1005.04
2018-11-11T03:03:16.656Z,1005.04
2018-11-11T03:04:26.640Z,1005.03
2018-11-11T03:05:37.600Z,1005.05
2018-11-11T03:06:47.767Z,1005.03
2018-11-11T03:07:57.939Z,1005.02
2018-11-11T03:09:07.824Z,1005.01
2018-11-11T03:10:16.897Z,1005.03
2018-11-11T03:11:27.077Z,1005.01
2018-11-11T03:12:37.243Z,1004.99
2018-11-11T03:13:47.142Z,1005
2018-11-11T03:14:57.040Z,1005.05
2018-11-11T03:16:06.655Z,1005.04
2018-11-11T03:17:16.825Z,1005.06
2018-11-11T03:18:26.168Z,1005.05
2018-11-11T03:19:36.056Z,1005.08
2018-11-11T03:20:45.664Z,1005.13
2018-11-11T03:21:55.560Z,1005.13
2018-11-11T03:23:05.744Z,1005.1
2018-11-11T03:24:15.635Z,1005.1
2018-11-11T03:25:25.527Z,1005.15
2018-11-11T03:26:35.413Z,1005.09
2018-11-11T03:27:45.359Z,1005.12
2018-11-11T03:28:55.525Z,1005.1
2018-11-11T03:30:05.144Z,1005.1
2018-11-11T03:31:15.047Z,1005.06
2018-11-11T03:32:25.240Z,1005.07
2018-11-11T03:33:35.406Z,1005.04
2018-11-11T03:34:45.299Z,1005.01
2018-11-11T03:35:55.192Z,1005.03
2018-11-11T03:37:04.804Z,1005.05
2018-11-11T03:38:14.700Z,1005.04
2018-11-11T03:39:24.860Z,1005.03
2018-11-11T03:40:34.477Z,1005.03
2018-11-11T03:41:44.377Z,1005.01
2018-11-11T03:42:54.276Z,1004.94
2018-11-11T03:44:03.901Z,1004.94
2018-11-11T03:45:14.068Z,1004.96
2018-11-11T03:46:24.223Z,1004.96
2018-11-11T03:47:34.120Z,1005.03
2018-11-11T03:48:44.020Z,1004.98
2018-11-11T03:49:53.922Z,1005.02
2018-11-11T03:51:04.298Z,1005.03
2018-11-11T03:52:13.915Z,1004.99
2018-11-11T03:53:23.803Z,1004.98
2018-11-11T03:54:33.972Z,1004.94
2018-11-11T03:55:44.152Z,1004.93
2018-11-11T03:56:54.039Z,1004.95
2018-11-11T03:58:03.935Z,1004.91
2018-11-11T03:59:14.120Z,1004.92
2018-11-11T04:00:24.025Z,1004.93
2018-11-11T04:01:33.923Z,1004.95
2018-11-11T04:02:43.816Z,1004.99
2018-11-11T04:03:53.722Z,1004.94
2018-11-11T04:05:03.609Z,1004.96
2018-11-11T04:06:13.504Z,1004.97
2018-11-11T04:07:23.695Z,1004.99
2018-11-11T04:08:33.592Z,1005.02
2018-11-11T04:09:43.494Z,1005
2018-11-11T04:10:53.658Z,1005
2018-11-11T04:12:03.007Z,1004.95
2018-11-11T04:13:12.634Z,1004.96
2018-11-11T04:14:22.304Z,1004.98
2018-11-11T04:15:31.928Z,1005
2018-11-11T04:16:41.543Z,1005.04
2018-11-11T04:17:51.440Z,1005.02
2018-11-11T04:19:01.057Z,1005.03
2018-11-11T04:20:10.679Z,1005
2018-11-11T04:21:20.612Z,1004.98
2018-11-11T04:22:30.500Z,1005.02
2018-11-11T04:23:40.675Z,1005.04
2018-11-11T04:24:50.018Z,1005.03
2018-11-11T04:26:00.201Z,1005.03
2018-11-11T04:27:10.098Z,1005
2018-11-11T04:28:19.993Z,1005
2018-11-11T04:29:29.883Z,1004.98
2018-11-11T04:30:40.054Z,1004.97
2018-11-11T04:31:50.236Z,1005.06
2018-11-11T04:33:00.399Z,1005.09
2018-11-11T04:34:09.741Z,1005.06
2018-11-11T04:35:19.903Z,1005.04
2018-11-11T04:36:30.080Z,1005.04
2018-11-11T04:37:39.761Z,1005.11
2018-11-11T04:38:49.925Z,1005.06
2018-11-11T04:39:59.963Z,1005.05
2018-11-11T04:41:09.587Z,1005
2018-11-11T04:42:19.206Z,1004.98
2018-11-11T04:43:29.107Z,1005.03
2018-11-11T04:44:39.268Z,1005.05
2018-11-11T04:45:48.941Z,1005.06
2018-11-11T04:46:58.838Z,1005.04
2018-11-11T04:48:08.738Z,1005.04
2018-11-11T04:49:18.910Z,1005.05
2018-11-11T04:50:29.188Z,1005.03
2018-11-11T04:51:39.082Z,1005.03
2018-11-11T04:52:48.972Z,1005
2018-11-11T04:53:58.320Z,1004.98
2018-11-11T04:55:07.939Z,1005.01
2018-11-11T04:56:17.839Z,1005.01
2018-11-11T04:57:28.010Z,1004.99
2018-11-11T04:58:37.356Z,1005.03
2018-11-11T04:59:46.695Z,1004.97
2018-11-11T05:00:56.590Z,1004.98
2018-11-11T05:02:06.761Z,1005.01
2018-11-11T05:03:16.374Z,1004.99
2018-11-11T05:04:25.732Z,1005.04
2018-11-11T05:05:35.875Z,1005.06
2018-11-11T05:06:45.761Z,1005.02
2018-11-11T05:07:55.656Z,1005.08
2018-11-11T05:09:05.826Z,1005.06
2018-11-11T05:10:16.003Z,1005.1
2018-11-11T05:11:25.935Z,1005.08
2018-11-11T05:12:36.096Z,1005.03
2018-11-11T05:13:45.174Z,1005.06
2018-11-11T05:14:54.781Z,1005.06
2018-11-11T05:16:04.449Z,1005.13
2018-11-11T05:17:14.062Z,1005.11
2018-11-11T05:18:23.957Z,1005.13
2018-11-11T05:19:33.567Z,1005.14
2018-11-11T05:20:43.457Z,1005.11
2018-11-11T05:21:53.410Z,1005.12
2018-11-11T05:23:04.205Z,1005.18
2018-11-11T05:24:14.102Z,1005.22
2018-11-11T05:25:24.267Z,1005.21
2018-11-11T05:26:34.162Z,1005.23
2018-11-11T05:27:44.106Z,1005.25
2018-11-11T05:28:54.271Z,1005.25
2018-11-11T05:30:03.900Z,1005.2
2018-11-11T05:31:13.802Z,1005.18
2018-11-11T05:32:23.686Z,1005.25
2018-11-11T05:33:33.848Z,1005.24
2018-11-11T05:34:43.742Z,1005.28
2018-11-11T05:35:53.918Z,1005.3
2018-11-11T05:37:03.538Z,1005.26
2018-11-11T05:38:12.876Z,1005.26
2018-11-11T05:39:22.765Z,1005.18
2018-11-11T05:40:32.673Z,1005.23
2018-11-11T05:41:42.338Z,1005.22
2018-11-11T05:42:52.230Z,1005.22
2018-11-11T05:44:01.843Z,1005.23
2018-11-11T05:45:12.012Z,1005.24
2018-11-11T05:46:22.173Z,1005.22
2018-11-11T05:47:32.329Z,1005.23
2018-11-11T05:48:41.938Z,1005.27
2018-11-11T05:49:51.842Z,1005.23
2018-11-11T05:51:01.738Z,1005.25
2018-11-11T05:52:11.354Z,1005.26
2018-11-11T05:53:20.971Z,1005.2
2018-11-11T05:54:30.860Z,1005.24
2018-11-11T05:55:40.745Z,1005.28
2018-11-11T05:56:50.355Z,1005.32
2018-11-11T05:57:59.973Z,1005.28
2018-11-11T05:59:09.864Z,1005.34
2018-11-11T06:00:19.753Z,1005.34
2018-11-11T06:01:29.100Z,1005.4
2018-11-11T06:02:39.261Z,1005.45
2018-11-11T06:03:49.422Z,1005.43
2018-11-11T06:04:59.297Z,1005.46
2018-11-11T06:06:08.637Z,1005.49
2018-11-11T06:07:18.804Z,1005.45
2018-11-11T06:08:28.420Z,1005.45
2018-11-11T06:09:38.037Z,1005.46
2018-11-11T06:10:47.651Z,1005.43
2018-11-11T06:11:57.543Z,1005.4
2018-11-11T06:13:07.469Z,1005.4
2018-11-11T06:14:17.357Z,1005.46
2018-11-11T06:15:27.528Z,1005.45
2018-11-11T06:16:36.918Z,1005.47
2018-11-11T06:17:46.267Z,1005.44
2018-11-11T06:18:55.331Z,1005.44
2018-11-11T06:20:05.221Z,1005.48
2018-11-11T06:21:14.838Z,1005.46
2018-11-11T06:22:24.176Z,1005.47
2018-11-11T06:23:33.787Z,1005.49
2018-11-11T06:24:42.858Z,1005.53
2018-11-11T06:25:53.059Z,1005.52
2018-11-11T06:27:02.678Z,1005.58
2018-11-11T06:28:12.312Z,1005.6
2018-11-11T06:29:21.989Z,1005.69
2018-11-11T06:30:31.878Z,1005.67
2018-11-11T06:31:41.538Z,1005.64
2018-11-11T06:32:51.428Z,1005.65
2018-11-11T06:34:01.165Z,1005.6
2018-11-11T06:35:11.389Z,1005.61
2018-11-11T06:36:21.550Z,1005.67
2018-11-11T06:37:31.711Z,1005.67
2018-11-11T06:38:41.881Z,1005.62
2018-11-11T06:39:51.491Z,1005.66
2018-11-11T06:41:01.700Z,1005.64
2018-11-11T06:42:11.043Z,1005.63
2018-11-11T06:43:20.660Z,1005.64
2018-11-11T06:44:30.549Z,1005.61
2018-11-11T06:45:40.719Z,1005.63
2018-11-11T06:46:50.335Z,1005.6
2018-11-11T06:48:00.575Z,1005.57
2018-11-11T06:49:10.517Z,1005.59
2018-11-11T06:50:20.684Z,1005.56
2018-11-11T06:51:30.852Z,1005.58
2018-11-11T06:52:40.756Z,1005.59
2018-11-11T06:53:50.942Z,1005.55
2018-11-11T06:55:01.107Z,1005.61
2018-11-11T06:56:11.268Z,1005.61
2018-11-11T06:57:21.435Z,1005.62
2018-11-11T06:58:31.332Z,1005.65
2018-11-11T06:59:41.215Z,1005.63
2018-11-11T07:00:51.374Z,1005.69
2018-11-11T07:02:00.721Z,1005.67
2018-11-11T07:03:10.622Z,1005.68
2018-11-11T07:04:20.508Z,1005.69
2018-11-11T07:05:30.403Z,1005.71
2018-11-11T07:06:40.063Z,1005.74
2018-11-11T07:07:49.948Z,1005.72
2018-11-11T07:08:59.568Z,1005.69
2018-11-11T07:10:09.744Z,1005.7
2018-11-11T07:11:19.627Z,1005.71
2018-11-11T07:12:29.517Z,1005.68
2018-11-11T07:13:38.856Z,1005.66
2018-11-11T07:14:48.861Z,1005.67
2018-11-11T07:15:58.769Z,1005.69
2018-11-11T07:17:08.654Z,1005.61
2018-11-11T07:18:18.819Z,1005.62
2018-11-11T07:19:28.446Z,1005.64
2018-11-11T07:20:38.334Z,1005.67
2018-11-11T07:21:48.502Z,1005.64
2018-11-11T07:22:58.668Z,1005.7
2018-11-11T07:24:08.405Z,1005.68
2018-11-11T07:25:18.522Z,1005.66
2018-11-11T07:26:28.150Z,1005.68
2018-11-11T07:27:37.776Z,1005.66
2018-11-11T07:28:47.949Z,1005.67
2018-11-11T07:29:58.120Z,1005.63
2018-11-11T07:31:07.186Z,1005.65
2018-11-11T07:32:17.076Z,1005.68
2018-11-11T07:33:26.978Z,1005.65
2018-11-11T07:34:36.592Z,1005.67
2018-11-11T07:35:46.213Z,1005.68
2018-11-11T07:36:56.046Z,1005.7
2018-11-11T07:38:06.229Z,1005.67
2018-11-11T07:39:15.842Z,1005.71
2018-11-11T07:40:25.462Z,1005.75
2018-11-11T07:41:35.629Z,1005.73
2018-11-11T07:42:45.866Z,1005.75
2018-11-11T07:43:55.532Z,1005.78
2018-11-11T07:45:05.702Z,1005.74
2018-11-11T07:46:15.322Z,1005.75
2018-11-11T07:47:25.487Z,1005.73
2018-11-11T07:48:34.833Z,1005.77
2018-11-11T07:49:44.817Z,1005.78
2018-11-11T07:50:54.979Z,1005.78
2018-11-11T07:52:04.670Z,1005.77
2018-11-11T07:53:15.204Z,1005.79
2018-11-11T07:54:24.551Z,1005.86
2018-11-11T07:55:33.952Z,1005.83
2018-11-11T07:56:43.572Z,1005.85
2018-11-11T07:57:53.727Z,1005.84
2018-11-11T07:59:03.647Z,1005.84
2018-11-11T08:00:13.263Z,1005.9
2018-11-11T08:01:23.489Z,1005.88
2018-11-11T08:02:33.542Z,1005.85
2018-11-11T08:03:43.161Z,1005.89
2018-11-11T08:04:52.782Z,1005.89
2018-11-11T08:06:02.679Z,1005.89
2018-11-11T08:07:12.296Z,1005.9
2018-11-11T08:08:21.914Z,1005.94
2018-11-11T08:09:31.799Z,1005.95
2018-11-11T08:10:41.965Z,1005.97
2018-11-11T08:11:51.924Z,1006.01
2018-11-11T08:13:02.093Z,1006.07
2018-11-11T08:14:11.715Z,1006.05
2018-11-11T08:15:21.330Z,1006.02
2018-11-11T08:16:30.700Z,1006.05
2018-11-11T08:17:41.124Z,1006.02
2018-11-11T08:18:51.359Z,1006.06
2018-11-11T08:20:01.240Z,1006.07
2018-11-11T08:21:10.863Z,1006.08
2018-11-11T08:22:20.762Z,1006.13
2018-11-11T08:23:30.386Z,1006.1
2018-11-11T08:24:40.326Z,1006.1
2018-11-11T08:25:50.738Z,1006.08
2018-11-11T08:27:00.361Z,1006.05
2018-11-11T08:28:09.980Z,1006.03
2018-11-11T08:29:19.877Z,1006.06
2018-11-11T08:30:29.498Z,1006.04
2018-11-11T08:31:39.672Z,1006.08
2018-11-11T08:32:49.585Z,1006.07
2018-11-11T08:33:59.203Z,1006.07
2018-11-11T08:35:08.543Z,1006.1
2018-11-11T08:36:18.160Z,1006.07
2018-11-11T08:37:28.054Z,1006.11
2018-11-11T08:38:37.948Z,1006.11
2018-11-11T08:39:48.106Z,1006.08
2018-11-11T08:40:58.285Z,1006.08
2018-11-11T08:42:08.189Z,1006.08
2018-11-11T08:43:18.364Z,1006.09
2018-11-11T08:44:27.982Z,1006.13
2018-11-11T08:45:37.322Z,1006.2
2018-11-11T08:46:46.934Z,1006.17
2018-11-11T08:47:56.823Z,1006.21
2018-11-11T08:49:07.217Z,1006.19
2018-11-11T08:50:16.552Z,1006.19
2018-11-11T08:51:26.178Z,1006.21
2018-11-11T08:52:36.069Z,1006.17
2018-11-11T08:53:45.963Z,1006.23
2018-11-11T08:54:56.126Z,1006.17
2018-11-11T08:56:05.743Z,1006.22
2018-11-11T08:57:15.631Z,1006.24
2018-11-11T08:58:25.799Z,1006.27
2018-11-11T08:59:35.419Z,1006.23
2018-11-11T09:00:44.492Z,1006.21
2018-11-11T09:01:54.112Z,1006.27
2018-11-11T09:03:03.738Z,1006.23
2018-11-11T09:04:13.082Z,1006.27
2018-11-11T09:05:22.758Z,1006.31
2018-11-11T09:06:32.650Z,1006.28
2018-11-11T09:07:41.711Z,1006.33
2018-11-11T09:08:51.886Z,1006.38
2018-11-11T09:10:01.773Z,1006.34
2018-11-11T09:11:10.859Z,1006.35
2018-11-11T09:12:21.393Z,1006.36
2018-11-11T09:13:31.013Z,1006.32
2018-11-11T09:14:41.178Z,1006.38
2018-11-11T09:15:51.059Z,1006.35
2018-11-11T09:17:01.217Z,1006.37
2018-11-11T09:18:10.880Z,1006.4
2018-11-11T09:19:20.498Z,1006.39
2018-11-11T09:20:30.118Z,1006.37
2018-11-11T09:21:40.282Z,1006.39
2018-11-11T09:22:49.905Z,1006.42
2018-11-11T09:23:59.787Z,1006.46
2018-11-11T09:25:09.136Z,1006.5
2018-11-11T09:26:19.063Z,1006.46
2018-11-11T09:27:28.955Z,1006.47
2018-11-11T09:28:38.856Z,1006.5
2018-11-11T09:29:48.961Z,1006.52
2018-11-11T09:30:58.985Z,1006.49
2018-11-11T09:32:08.915Z,1006.51
2018-11-11T09:33:18.540Z,1006.53
2018-11-11T09:34:28.207Z,1006.53
2018-11-11T09:35:38.092Z,1006.56
2018-11-11T09:36:47.710Z,1006.62
2018-11-11T09:37:57.332Z,1006.61
2018-11-11T09:39:07.054Z,1006.62
2018-11-11T09:40:17.883Z,1006.61
2018-11-11T09:41:27.781Z,1006.65
2018-11-11T09:42:38.091Z,1006.63
2018-11-11T09:43:48.358Z,1006.7
2018-11-11T09:44:57.711Z,1006.66
2018-11-11T09:46:07.877Z,1006.68
2018-11-11T09:47:17.775Z,1006.7
2018-11-11T09:48:27.666Z,1006.73
2018-11-11T09:49:37.561Z,1006.67
2018-11-11T09:50:46.915Z,1006.68
2018-11-11T09:51:56.537Z,1006.62
2018-11-11T09:53:06.158Z,1006.71
2018-11-11T09:54:15.659Z,1006.67
2018-11-11T09:55:25.324Z,1006.65
2018-11-11T09:56:35.214Z,1006.7
2018-11-11T09:57:45.101Z,1006.67
2018-11-11T09:58:54.995Z,1006.63
2018-11-11T10:00:04.899Z,1006.66
2018-11-11T10:01:14.240Z,1006.68
2018-11-11T10:02:24.145Z,1006.66
2018-11-11T10:03:33.819Z,1006.65
2018-11-11T10:04:43.773Z,1006.71
2018-11-11T10:05:53.969Z,1006.7
2018-11-11T10:07:03.940Z,1006.71
2018-11-11T10:08:14.460Z,1006.69
2018-11-11T10:09:24.627Z,1006.67
2018-11-11T10:10:34.524Z,1006.66
2018-11-11T10:11:44.144Z,1006.66
2018-11-11T10:12:53.891Z,1006.63
2018-11-11T10:14:03.800Z,1006.57
2018-11-11T10:15:13.193Z,1006.62
2018-11-11T10:16:23.090Z,1006.56
2018-11-11T10:17:32.983Z,1006.57
2018-11-11T10:18:42.892Z,1006.55
2018-11-11T10:19:52.787Z,1006.56
2018-11-11T10:21:03.073Z,1006.56
2018-11-11T10:22:12.143Z,1006.52
2018-11-11T10:23:22.303Z,1006.51
2018-11-11T10:24:32.462Z,1006.55
2018-11-11T10:25:42.349Z,1006.58
2018-11-11T10:26:52.240Z,1006.59
2018-11-11T10:28:02.434Z,1006.63
2018-11-11T10:29:12.374Z,1006.64
2018-11-11T10:30:23.133Z,1006.56
2018-11-11T10:31:33.298Z,1006.54
2018-11-11T10:32:43.184Z,1006.59
2018-11-11T10:33:53.133Z,1006.6
2018-11-11T10:35:03.023Z,1006.57
2018-11-11T10:36:12.647Z,1006.57
2018-11-11T10:37:22.599Z,1006.56
2018-11-11T10:38:33.390Z,1006.57
2018-11-11T10:39:43.281Z,1006.55
2018-11-11T10:40:52.623Z,1006.57
2018-11-11T10:42:02.518Z,1006.51
2018-11-11T10:43:12.416Z,1006.57
2018-11-11T10:44:21.767Z,1006.57
2018-11-11T10:45:32.576Z,1006.64
2018-11-11T10:46:42.757Z,1006.58
2018-11-11T10:47:52.109Z,1006.53
2018-11-11T10:49:01.738Z,1006.55
2018-11-11T10:50:11.680Z,1006.57
2018-11-11T10:51:21.567Z,1006.51
2018-11-11T10:52:31.466Z,1006.53
2018-11-11T10:53:41.360Z,1006.58
2018-11-11T10:54:51.251Z,1006.54
2018-11-11T10:56:01.145Z,1006.59
2018-11-11T10:57:11.320Z,1006.49
2018-11-11T10:58:21.225Z,1006.65
2018-11-11T10:59:31.447Z,1006.58
2018-11-11T11:00:41.352Z,1006.53
2018-11-11T11:01:50.968Z,1006.54
2018-11-11T11:03:01.140Z,1006.47
2018-11-11T11:04:11.049Z,1006.51
2018-11-11T11:05:20.937Z,1006.49
2018-11-11T11:06:30.290Z,1006.5
2018-11-11T11:07:40.185Z,1006.51
2018-11-11T11:08:49.799Z,1006.51
2018-11-11T11:09:59.695Z,1006.47
2018-11-11T11:11:09.040Z,1006.52
2018-11-11T11:12:18.655Z,1006.53
2018-11-11T11:13:28.692Z,1006.46
2018-11-11T11:14:39.279Z,1006.46
2018-11-11T11:15:49.191Z,1006.53
2018-11-11T11:16:58.806Z,1006.52
2018-11-11T11:18:08.434Z,1006.49
2018-11-11T11:19:18.325Z,1006.53
2018-11-11T11:20:27.950Z,1006.51
2018-11-11T11:21:37.301Z,1006.51
2018-11-11T11:22:46.960Z,1006.44
2018-11-11T11:23:57.240Z,1006.48
2018-11-11T11:25:06.928Z,1006.47
2018-11-11T11:26:16.276Z,1006.51
2018-11-11T11:27:26.284Z,1006.5
2018-11-11T11:28:36.053Z,1006.57
2018-11-11T11:29:45.723Z,1006.46
2018-11-11T11:30:55.350Z,1006.48
2018-11-11T11:32:04.809Z,1006.38
2018-11-11T11:33:15.277Z,1006.43
2018-11-11T11:34:25.197Z,1006.46
2018-11-11T11:35:34.888Z,1006.46
2018-11-11T11:36:44.898Z,1006.46
2018-11-11T11:37:54.790Z,1006.5
2018-11-11T11:39:05.152Z,1006.54
2018-11-11T11:40:14.796Z,1006.53
2018-11-11T11:41:24.513Z,1006.59
2018-11-11T11:42:34.969Z,1006.59
2018-11-11T11:43:44.861Z,1006.65
2018-11-11T11:44:54.610Z,1006.64
2018-11-11T11:46:04.517Z,1006.64
2018-11-11T11:47:14.741Z,1006.65
2018-11-11T11:48:25.183Z,1006.68
2018-11-11T11:49:35.088Z,1006.76
2018-11-11T11:50:44.777Z,1006.67
2018-11-11T11:51:54.993Z,1006.69
2018-11-11T11:53:05.627Z,1006.72
2018-11-11T11:54:15.672Z,1006.84
2018-11-11T11:55:25.570Z,1006.84
2018-11-11T11:56:35.190Z,1006.79
2018-11-11T11:57:45.088Z,1006.85
2018-11-11T11:58:55.474Z,1006.79
2018-11-11T12:00:05.373Z,1006.89
2018-11-11T12:01:14.998Z,1006.83
2018-11-11T12:02:25.211Z,1006.95
2018-11-11T12:03:35.097Z,1006.91
2018-11-11T12:04:44.448Z,1006.89
2018-11-11T12:05:54.068Z,1006.9
2018-11-11T12:07:03.683Z,1006.98
2018-11-11T12:08:13.837Z,1007.01
2018-11-11T12:09:23.574Z,1006.99
2018-11-11T12:10:33.470Z,1006.99
2018-11-11T12:11:43.435Z,1007.07
2018-11-11T12:12:53.325Z,1007.08
2018-11-11T12:14:02.949Z,1007.08
2018-11-11T12:15:12.839Z,1007.14
2018-11-11T12:16:22.234Z,1007.15
2018-11-11T12:17:31.673Z,1007.11
2018-11-11T12:18:41.556Z,1007.13
2018-11-11T12:19:51.452Z,1007.17
2018-11-11T12:21:01.352Z,1007.14
2018-11-11T12:22:10.696Z,1007.2
2018-11-11T12:23:21.015Z,1007.31
2018-11-11T12:24:31.393Z,1007.25
2018-11-11T12:25:41.292Z,1007.38
2018-11-11T12:26:51.183Z,1007.33
2018-11-11T12:28:01.071Z,1007.36
2018-11-11T12:29:10.695Z,1007.31
2018-11-11T12:30:20.635Z,1007.3
2018-11-11T12:31:31.349Z,1007.31
2018-11-11T12:32:41.253Z,1007.3
2018-11-11T12:33:50.323Z,1007.38
2018-11-11T12:34:59.962Z,1007.32
2018-11-11T12:36:09.433Z,1007.37
2018-11-11T12:37:18.788Z,1007.3
2018-11-11T12:38:28.962Z,1007.37
2018-11-11T12:39:38.665Z,1007.3
2018-11-11T12:40:48.752Z,1007.35
2018-11-11T12:41:58.375Z,1007.37
2018-11-11T12:43:08.006Z,1007.34
2018-11-11T12:44:18.430Z,1007.28
2018-11-11T12:45:28.601Z,1007.37
2018-11-11T12:46:38.862Z,1007.33
2018-11-11T12:47:48.582Z,1007.34
2018-11-11T12:48:58.225Z,1007.36
2018-11-11T12:50:08.577Z,1007.37
2018-11-11T12:51:19.181Z,1007.36
2018-11-11T12:52:29.348Z,1007.48
2018-11-11T12:53:39.503Z,1007.48
2018-11-11T12:54:49.442Z,1007.48
2018-11-11T12:55:59.503Z,1007.44
2018-11-11T12:57:09.394Z,1007.49
2018-11-11T12:58:19.288Z,1007.41
2018-11-11T12:59:29.228Z,1007.44
2018-11-11T13:00:38.849Z,1007.43
2018-11-11T13:01:49.147Z,1007.45
2018-11-11T13:02:59.096Z,1007.4
2018-11-11T13:04:08.712Z,1007.48
2018-11-11T13:05:18.600Z,1007.46
2018-11-11T13:06:28.505Z,1007.47
2018-11-11T13:07:38.122Z,1007.47
2018-11-11T13:08:48.297Z,1007.5
2018-11-11T13:09:57.921Z,1007.51
2018-11-11T13:11:07.266Z,1007.56
2018-11-11T13:12:17.011Z,1007.47
2018-11-11T13:13:28.567Z,1007.48
2018-11-11T13:14:38.789Z,1007.55
2018-11-11T13:15:48.134Z,1007.45
2018-11-11T13:16:57.493Z,1007.48
2018-11-11T13:18:07.390Z,1007.52
2018-11-11T13:19:16.737Z,1007.56
2018-11-11T13:20:26.367Z,1007.59
2018-11-11T13:21:36.272Z,1007.62
2018-11-11T13:22:46.584Z,1007.62
2018-11-11T13:23:57.431Z,1007.6
2018-11-11T13:25:07.052Z,1007.57
2018-11-11T13:26:16.674Z,1007.6
2018-11-11T13:27:26.563Z,1007.61
2018-11-11T13:28:36.459Z,1007.59
2018-11-11T13:29:45.859Z,1007.62
2018-11-11T13:30:56.044Z,1007.64
2018-11-11T13:32:06.081Z,1007.59
2018-11-11T13:33:15.700Z,1007.67
2018-11-11T13:34:25.047Z,1007.63
2018-11-11T13:35:34.665Z,1007.66
2018-11-11T13:36:44.832Z,1007.58
2018-11-11T13:37:54.514Z,1007.56
2018-11-11T13:39:04.498Z,1007.54
2018-11-11T13:40:13.837Z,1007.56
2018-11-11T13:41:23.719Z,1007.55
2018-11-11T13:42:33.346Z,1007.61
2018-11-11T13:43:43.504Z,1007.61
2018-11-11T13:44:53.397Z,1007.54
2018-11-11T13:46:03.063Z,1007.59
2018-11-11T13:47:13.114Z,1007.59
2018-11-11T13:48:23.009Z,1007.55
2018-11-11T13:49:32.357Z,1007.58
2018-11-11T13:50:41.975Z,1007.6
2018-11-11T13:51:51.379Z,1007.62
2018-11-11T13:53:00.801Z,1007.63
2018-11-11T13:54:10.422Z,1007.64
2018-11-11T13:55:20.051Z,1007.65
2018-11-11T13:56:30.224Z,1007.67
2018-11-11T13:57:40.112Z,1007.68
2018-11-11T13:58:50.015Z,1007.76
2018-11-11T13:59:59.089Z,1007.72
2018-11-11T14:01:08.706Z,1007.7
2018-11-11T14:02:18.324Z,1007.69
2018-11-11T14:03:28.569Z,1007.79
2018-11-11T14:04:38.460Z,1007.8
2018-11-11T14:05:48.633Z,1007.79
2018-11-11T14:06:58.421Z,1007.78
2018-11-11T14:08:08.378Z,1007.83